This is the latest recevied weather packets stored in our database for station/object OE-11349. If no packets are shown the sender has not sent any weather packets the latest 10 day(s).
| Time | Temp. | Humidity | Pressure | Rain* | Wind** | Luminosity | Snow |
|---|---|---|---|---|---|---|---|
| 1787841682 | 22.22° C | 54% | 854.9 hPa | - | - | 413 W/m² | - |
| 1787841309 | 22.22° C | 52% | 854.9 hPa | - | - | 420 W/m² | - |
| 1787839882 | 22.78° C | 52% | 854.7 hPa | - | - | 496 W/m² | - |
| 1787839509 | 23.33° C | 50% | 854.7 hPa | - | - | 530 W/m² | - |
| 1787838909 | 22.78° C | 50% | 854.7 hPa | - | - | 612 W/m² | - |
| 1787838082 | 22.78° C | 49% | 854.7 hPa | - | - | 633 W/m² | - |
| 1787837709 | 22.78° C | 50% | 854.7 hPa | - | - | 619 W/m² | - |
| 1787837109 | 22.78° C | 49% | 854.7 hPa | - | - | 681 W/m² | - |
| 1787836282 | 22.78° C | 49% | 854.7 hPa | - | - | 668 W/m² | - |
| 1787835908 | 22.22° C | 52% | 854.9 hPa | - | - | 661 W/m² | - |
| 1787835309 | 22.78° C | 52% | 854.8 hPa | - | - | 750 W/m² | - |
| 1787834482 | 22.22° C | 54% | 854.9 hPa | - | - | 702 W/m² | - |
| 1787834108 | 22.22° C | 55% | 855 hPa | - | - | 778 W/m² | - |
| 1787833509 | 21.67° C | 55% | 855 hPa | - | - | 743 W/m² | - |
| 1787832682 | 21.11° C | 55% | 855.1 hPa | - | - | 688 W/m² | - |
| 1787832309 | 21.11° C | 54% | 855.1 hPa | - | - | 736 W/m² | - |
| 1787831708 | 21.11° C | 54% | 855.1 hPa | - | - | 750 W/m² | - |
| 1787830882 | 21.11° C | 56% | 855.4 hPa | - | - | 764 W/m² | - |
| 1787830508 | 20.56° C | 56% | 855.4 hPa | - | - | 757 W/m² | - |
| 1787829908 | 20.56° C | 56% | 855.4 hPa | - | - | 743 W/m² | - |
| 1787829082 | 20° C | 59% | 855.4 hPa | - | - | 743 W/m² | - |
| 1787828709 | 20° C | 60% | 855.4 hPa | - | - | 757 W/m² | - |
| 1787828109 | 19.44° C | 62% | 855.4 hPa | - | - | 757 W/m² | - |
| 1787827281 | 19.44° C | 66% | 855.4 hPa | - | - | 771 W/m² | - |
| 1787826908 | 20° C | 66% | 855.4 hPa | - | - | 778 W/m² | - |
* Rain since midnight (hover to see other rain measurements)
** Current wind speed in m/s (hover to see current wind gust speed)